sensor_id;sensor_type;location;lat;lon;timestamp;P1;durP1;ratioP1;P2;durP2;ratioP2
17361;SDS011;8798;51.938;4.348;2023-06-22T00:00:30;14.73;;;8.30;;
17361;SDS011;8798;51.938;4.348;2023-06-22T00:02:58;12.97;;;7.67;;
17361;SDS011;8798;51.938;4.348;2023-06-22T00:05:26;12.63;;;7.37;;
17361;SDS011;8798;51.938;4.348;2023-06-22T00:07:56;13.07;;;7.00;;
17361;SDS011;8798;51.938;4.348;2023-06-22T00:10:24;12.68;;;7.88;;
17361;SDS011;8798;51.938;4.348;2023-06-22T00:12:52;13.63;;;7.93;;
17361;SDS011;8798;51.938;4.348;2023-06-22T00:15:20;12.23;;;7.85;;
17361;SDS011;8798;51.938;4.348;2023-06-22T00:17:48;12.00;;;7.17;;
17361;SDS011;8798;51.938;4.348;2023-06-22T00:20:16;14.40;;;7.63;;
17361;SDS011;8798;51.938;4.348;2023-06-22T00:22:45;13.43;;;7.55;;
17361;SDS011;8798;51.938;4.348;2023-06-22T00:25:15;11.90;;;6.88;;
17361;SDS011;8798;51.938;4.348;2023-06-22T00:27:43;12.40;;;7.60;;
17361;SDS011;8798;51.938;4.348;2023-06-22T00:30:11;12.40;;;7.30;;
17361;SDS011;8798;51.938;4.348;2023-06-22T00:32:39;13.43;;;7.53;;
17361;SDS011;8798;51.938;4.348;2023-06-22T00:35:07;16.47;;;8.03;;
17361;SDS011;8798;51.938;4.348;2023-06-22T00:37:36;13.88;;;8.02;;
17361;SDS011;8798;51.938;4.348;2023-06-22T00:40:05;14.67;;;8.03;;
17361;SDS011;8798;51.938;4.348;2023-06-22T00:42:35;16.90;;;8.80;;
17361;SDS011;8798;51.938;4.348;2023-06-22T00:45:03;12.50;;;7.77;;
17361;SDS011;8798;51.938;4.348;2023-06-22T00:47:32;13.60;;;8.07;;
17361;SDS011;8798;51.938;4.348;2023-06-22T00:50:01;13.75;;;8.55;;
17361;SDS011;8798;51.938;4.348;2023-06-22T00:52:30;13.57;;;8.48;;
17361;SDS011;8798;51.938;4.348;2023-06-22T00:55:01;16.33;;;8.52;;
17361;SDS011;8798;51.938;4.348;2023-06-22T00:57:29;17.30;;;8.47;;
17361;SDS011;8798;51.938;4.348;2023-06-22T00:59:59;13.27;;;8.30;;
17361;SDS011;8798;51.938;4.348;2023-06-22T01:02:27;17.87;;;9.63;;
17361;SDS011;8798;51.938;4.348;2023-06-22T01:04:56;19.00;;;10.30;;
17361;SDS011;8798;51.938;4.348;2023-06-22T01:07:25;16.67;;;9.63;;
17361;SDS011;8798;51.938;4.348;2023-06-22T01:09:59;18.57;;;9.83;;
17361;SDS011;8798;51.938;4.348;2023-06-22T01:12:38;16.73;;;9.73;;
17361;SDS011;8798;51.938;4.348;2023-06-22T01:15:13;20.73;;;10.67;;
17361;SDS011;8798;51.938;4.348;2023-06-22T01:17:46;18.00;;;10.10;;
17361;SDS011;8798;51.938;4.348;2023-06-22T01:20:17;16.53;;;9.80;;
17361;SDS011;8798;51.938;4.348;2023-06-22T01:22:50;17.17;;;10.13;;
17361;SDS011;8798;51.938;4.348;2023-06-22T01:25:31;17.73;;;10.23;;
17361;SDS011;8798;51.938;4.348;2023-06-22T01:28:05;19.33;;;11.30;;
17361;SDS011;8798;51.938;4.348;2023-06-22T01:30:46;20.07;;;10.87;;
17361;SDS011;8798;51.938;4.348;2023-06-22T01:33:33;19.20;;;10.63;;
17361;SDS011;8798;51.938;4.348;2023-06-22T01:36:02;16.23;;;9.90;;
17361;SDS011;8798;51.938;4.348;2023-06-22T01:38:32;18.50;;;10.37;;
17361;SDS011;8798;51.938;4.348;2023-06-22T01:41:02;19.13;;;10.57;;
17361;SDS011;8798;51.938;4.348;2023-06-22T01:43:32;19.53;;;11.00;;
17361;SDS011;8798;51.938;4.348;2023-06-22T01:46:02;22.97;;;11.80;;
17361;SDS011;8798;51.938;4.348;2023-06-22T01:48:31;19.77;;;11.50;;
17361;SDS011;8798;51.938;4.348;2023-06-22T01:51:00;19.87;;;10.67;;
17361;SDS011;8798;51.938;4.348;2023-06-22T01:53:28;20.40;;;11.17;;
17361;SDS011;8798;51.938;4.348;2023-06-22T01:55:56;21.40;;;11.60;;
17361;SDS011;8798;51.938;4.348;2023-06-22T01:58:25;20.27;;;12.33;;
17361;SDS011;8798;51.938;4.348;2023-06-22T02:00:56;20.03;;;11.30;;
17361;SDS011;8798;51.938;4.348;2023-06-22T02:03:31;19.93;;;12.13;;
17361;SDS011;8798;51.938;4.348;2023-06-22T02:06:05;20.27;;;11.77;;
17361;SDS011;8798;51.938;4.348;2023-06-22T02:08:36;23.27;;;11.73;;
17361;SDS011;8798;51.938;4.348;2023-06-22T02:11:08;19.57;;;11.23;;
17361;SDS011;8798;51.938;4.348;2023-06-22T02:13:37;22.60;;;12.57;;
17361;SDS011;8798;51.938;4.348;2023-06-22T02:16:11;22.07;;;11.80;;
17361;SDS011;8798;51.938;4.348;2023-06-22T02:18:47;21.03;;;11.80;;
17361;SDS011;8798;51.938;4.348;2023-06-22T02:21:17;21.33;;;11.80;;
17361;SDS011;8798;51.938;4.348;2023-06-22T02:23:45;21.13;;;11.20;;
17361;SDS011;8798;51.938;4.348;2023-06-22T02:26:16;22.17;;;11.43;;
17361;SDS011;8798;51.938;4.348;2023-06-22T02:28:45;19.50;;;11.07;;
17361;SDS011;8798;51.938;4.348;2023-06-22T02:31:13;20.77;;;12.40;;
17361;SDS011;8798;51.938;4.348;2023-06-22T02:33:42;20.07;;;11.27;;
17361;SDS011;8798;51.938;4.348;2023-06-22T02:36:13;23.00;;;12.57;;
17361;SDS011;8798;51.938;4.348;2023-06-22T02:38:41;20.73;;;11.67;;
17361;SDS011;8798;51.938;4.348;2023-06-22T02:41:14;22.83;;;11.27;;
17361;SDS011;8798;51.938;4.348;2023-06-22T02:43:44;19.10;;;11.23;;
17361;SDS011;8798;51.938;4.348;2023-06-22T02:46:13;22.17;;;11.90;;
17361;SDS011;8798;51.938;4.348;2023-06-22T02:48:41;21.90;;;12.00;;
17361;SDS011;8798;51.938;4.348;2023-06-22T02:51:14;21.20;;;11.33;;
17361;SDS011;8798;51.938;4.348;2023-06-22T02:53:42;20.33;;;11.20;;
17361;SDS011;8798;51.938;4.348;2023-06-22T02:56:11;22.07;;;11.83;;
17361;SDS011;8798;51.938;4.348;2023-06-22T02:58:39;18.90;;;11.33;;
17361;SDS011;8798;51.938;4.348;2023-06-22T03:01:07;20.87;;;11.50;;
17361;SDS011;8798;51.938;4.348;2023-06-22T03:03:36;24.67;;;12.13;;
17361;SDS011;8798;51.938;4.348;2023-06-22T03:06:04;19.37;;;11.40;;
17361;SDS011;8798;51.938;4.348;2023-06-22T03:08:33;22.70;;;12.00;;
17361;SDS011;8798;51.938;4.348;2023-06-22T03:11:01;22.40;;;11.90;;
17361;SDS011;8798;51.938;4.348;2023-06-22T03:13:29;20.57;;;11.87;;
17361;SDS011;8798;51.938;4.348;2023-06-22T03:15:57;22.53;;;11.80;;
17361;SDS011;8798;51.938;4.348;2023-06-22T03:18:25;21.07;;;11.90;;
17361;SDS011;8798;51.938;4.348;2023-06-22T03:20:53;20.67;;;11.43;;
17361;SDS011;8798;51.938;4.348;2023-06-22T03:23:21;22.43;;;11.90;;
17361;SDS011;8798;51.938;4.348;2023-06-22T03:25:50;21.40;;;11.70;;
17361;SDS011;8798;51.938;4.348;2023-06-22T03:28:20;24.10;;;12.90;;
17361;SDS011;8798;51.938;4.348;2023-06-22T03:30:48;23.60;;;13.23;;
17361;SDS011;8798;51.938;4.348;2023-06-22T03:33:16;23.47;;;13.57;;
17361;SDS011;8798;51.938;4.348;2023-06-22T03:35:44;23.33;;;12.77;;
17361;SDS011;8798;51.938;4.348;2023-06-22T03:38:11;22.73;;;13.33;;
17361;SDS011;8798;51.938;4.348;2023-06-22T03:40:39;27.37;;;14.43;;
17361;SDS011;8798;51.938;4.348;2023-06-22T03:43:09;25.40;;;13.77;;
17361;SDS011;8798;51.938;4.348;2023-06-22T03:45:37;28.27;;;14.07;;
17361;SDS011;8798;51.938;4.348;2023-06-22T03:48:06;24.50;;;13.37;;
17361;SDS011;8798;51.938;4.348;2023-06-22T03:50:34;25.07;;;13.30;;
17361;SDS011;8798;51.938;4.348;2023-06-22T03:53:02;25.03;;;13.93;;
17361;SDS011;8798;51.938;4.348;2023-06-22T03:55:30;28.10;;;13.63;;
17361;SDS011;8798;51.938;4.348;2023-06-22T03:57:58;22.13;;;13.37;;
17361;SDS011;8798;51.938;4.348;2023-06-22T04:00:33;25.67;;;12.67;;
17361;SDS011;8798;51.938;4.348;2023-06-22T04:03:02;25.30;;;13.07;;
17361;SDS011;8798;51.938;4.348;2023-06-22T04:05:30;22.27;;;12.80;;
17361;SDS011;8798;51.938;4.348;2023-06-22T04:07:58;23.83;;;13.30;;
17361;SDS011;8798;51.938;4.348;2023-06-22T04:10:26;24.37;;;13.90;;
17361;SDS011;8798;51.938;4.348;2023-06-22T04:12:54;24.43;;;12.80;;
17361;SDS011;8798;51.938;4.348;2023-06-22T04:15:22;27.33;;;15.00;;
17361;SDS011;8798;51.938;4.348;2023-06-22T04:17:52;27.27;;;14.33;;
17361;SDS011;8798;51.938;4.348;2023-06-22T04:20:22;23.47;;;13.37;;
17361;SDS011;8798;51.938;4.348;2023-06-22T04:22:55;21.53;;;12.33;;
17361;SDS011;8798;51.938;4.348;2023-06-22T04:25:23;22.33;;;13.23;;
17361;SDS011;8798;51.938;4.348;2023-06-22T04:27:51;23.50;;;12.90;;
17361;SDS011;8798;51.938;4.348;2023-06-22T04:30:19;25.57;;;13.20;;
17361;SDS011;8798;51.938;4.348;2023-06-22T04:32:47;24.23;;;13.87;;
17361;SDS011;8798;51.938;4.348;2023-06-22T04:35:25;27.17;;;13.20;;
17361;SDS011;8798;51.938;4.348;2023-06-22T04:37:57;21.90;;;12.50;;
17361;SDS011;8798;51.938;4.348;2023-06-22T04:40:26;24.10;;;13.50;;
17361;SDS011;8798;51.938;4.348;2023-06-22T04:42:54;24.13;;;13.33;;
17361;SDS011;8798;51.938;4.348;2023-06-22T04:45:22;21.53;;;12.43;;
17361;SDS011;8798;51.938;4.348;2023-06-22T04:47:50;22.17;;;12.27;;
17361;SDS011;8798;51.938;4.348;2023-06-22T04:50:18;25.00;;;14.10;;
17361;SDS011;8798;51.938;4.348;2023-06-22T04:52:49;23.60;;;12.60;;
17361;SDS011;8798;51.938;4.348;2023-06-22T04:55:18;25.80;;;14.27;;
17361;SDS011;8798;51.938;4.348;2023-06-22T04:57:47;25.10;;;13.83;;
17361;SDS011;8798;51.938;4.348;2023-06-22T05:00:16;24.00;;;13.73;;
17361;SDS011;8798;51.938;4.348;2023-06-22T05:02:46;24.63;;;14.20;;
17361;SDS011;8798;51.938;4.348;2023-06-22T05:05:14;27.17;;;14.00;;
17361;SDS011;8798;51.938;4.348;2023-06-22T05:07:44;23.27;;;13.57;;
17361;SDS011;8798;51.938;4.348;2023-06-22T05:10:16;29.77;;;14.87;;
17361;SDS011;8798;51.938;4.348;2023-06-22T05:12:44;28.00;;;14.53;;
17361;SDS011;8798;51.938;4.348;2023-06-22T05:15:12;26.00;;;14.00;;
17361;SDS011;8798;51.938;4.348;2023-06-22T05:17:40;25.03;;;14.17;;
17361;SDS011;8798;51.938;4.348;2023-06-22T05:20:10;24.97;;;13.80;;
17361;SDS011;8798;51.938;4.348;2023-06-22T05:22:42;22.80;;;13.20;;
17361;SDS011;8798;51.938;4.348;2023-06-22T05:25:10;25.77;;;14.23;;
17361;SDS011;8798;51.938;4.348;2023-06-22T05:27:40;28.13;;;14.53;;
17361;SDS011;8798;51.938;4.348;2023-06-22T05:30:10;25.37;;;13.43;;
17361;SDS011;8798;51.938;4.348;2023-06-22T05:32:38;23.03;;;13.27;;
17361;SDS011;8798;51.938;4.348;2023-06-22T05:35:06;25.00;;;14.10;;
17361;SDS011;8798;51.938;4.348;2023-06-22T05:37:35;29.97;;;14.70;;
17361;SDS011;8798;51.938;4.348;2023-06-22T05:40:03;24.97;;;13.60;;
17361;SDS011;8798;51.938;4.348;2023-06-22T05:42:33;27.70;;;13.53;;
17361;SDS011;8798;51.938;4.348;2023-06-22T05:45:03;23.23;;;13.67;;
17361;SDS011;8798;51.938;4.348;2023-06-22T05:47:31;25.37;;;13.83;;
17361;SDS011;8798;51.938;4.348;2023-06-22T05:49:59;26.37;;;14.63;;
17361;SDS011;8798;51.938;4.348;2023-06-22T05:52:27;24.30;;;13.93;;
17361;SDS011;8798;51.938;4.348;2023-06-22T05:54:55;25.50;;;13.83;;
17361;SDS011;8798;51.938;4.348;2023-06-22T05:57:23;27.60;;;14.50;;
17361;SDS011;8798;51.938;4.348;2023-06-22T05:59:51;28.07;;;14.60;;
17361;SDS011;8798;51.938;4.348;2023-06-22T06:02:21;27.30;;;14.90;;
17361;SDS011;8798;51.938;4.348;2023-06-22T06:04:49;25.67;;;13.57;;
17361;SDS011;8798;51.938;4.348;2023-06-22T06:07:21;25.10;;;14.00;;
17361;SDS011;8798;51.938;4.348;2023-06-22T06:09:49;26.30;;;14.13;;
17361;SDS011;8798;51.938;4.348;2023-06-22T06:12:17;24.63;;;13.70;;
17361;SDS011;8798;51.938;4.348;2023-06-22T06:14:45;23.07;;;13.27;;
17361;SDS011;8798;51.938;4.348;2023-06-22T06:17:13;24.07;;;12.50;;
17361;SDS011;8798;51.938;4.348;2023-06-22T06:19:42;24.03;;;13.03;;
17361;SDS011;8798;51.938;4.348;2023-06-22T06:22:10;21.50;;;12.27;;
17361;SDS011;8798;51.938;4.348;2023-06-22T06:24:38;22.13;;;12.77;;
17361;SDS011;8798;51.938;4.348;2023-06-22T06:27:06;27.17;;;12.80;;
17361;SDS011;8798;51.938;4.348;2023-06-22T06:29:34;24.73;;;12.30;;
17361;SDS011;8798;51.938;4.348;2023-06-22T06:32:02;21.60;;;12.33;;
17361;SDS011;8798;51.938;4.348;2023-06-22T06:34:31;19.90;;;11.87;;
17361;SDS011;8798;51.938;4.348;2023-06-22T06:37:00;23.83;;;12.50;;
17361;SDS011;8798;51.938;4.348;2023-06-22T06:39:28;23.90;;;12.90;;
17361;SDS011;8798;51.938;4.348;2023-06-22T06:41:56;24.00;;;12.43;;
17361;SDS011;8798;51.938;4.348;2023-06-22T06:44:24;22.23;;;12.27;;
17361;SDS011;8798;51.938;4.348;2023-06-22T06:46:52;23.77;;;12.32;;
17361;SDS011;8798;51.938;4.348;2023-06-22T06:49:20;24.23;;;12.77;;
17361;SDS011;8798;51.938;4.348;2023-06-22T06:51:48;21.60;;;11.43;;
17361;SDS011;8798;51.938;4.348;2023-06-22T06:54:18;22.10;;;11.33;;
17361;SDS011;8798;51.938;4.348;2023-06-22T06:56:47;21.50;;;12.30;;
17361;SDS011;8798;51.938;4.348;2023-06-22T06:59:16;19.83;;;11.43;;
17361;SDS011;8798;51.938;4.348;2023-06-22T07:01:44;18.27;;;10.57;;
17361;SDS011;8798;51.938;4.348;2023-06-22T07:04:15;15.97;;;9.80;;
17361;SDS011;8798;51.938;4.348;2023-06-22T07:06:43;18.37;;;10.50;;
17361;SDS011;8798;51.938;4.348;2023-06-22T07:09:11;18.00;;;9.87;;
17361;SDS011;8798;51.938;4.348;2023-06-22T07:11:40;14.53;;;9.17;;
17361;SDS011;8798;51.938;4.348;2023-06-22T07:14:08;15.13;;;9.10;;
17361;SDS011;8798;51.938;4.348;2023-06-22T07:16:35;14.15;;;8.25;;
17361;SDS011;8798;51.938;4.348;2023-06-22T07:19:03;18.67;;;9.23;;
17361;SDS011;8798;51.938;4.348;2023-06-22T07:21:33;15.45;;;8.52;;
17361;SDS011;8798;51.938;4.348;2023-06-22T07:24:01;15.25;;;8.07;;
17361;SDS011;8798;51.938;4.348;2023-06-22T07:26:32;17.00;;;9.18;;
17361;SDS011;8798;51.938;4.348;2023-06-22T07:29:01;14.63;;;8.07;;
17361;SDS011;8798;51.938;4.348;2023-06-22T07:31:29;12.32;;;8.00;;
17361;SDS011;8798;51.938;4.348;2023-06-22T07:33:57;14.33;;;8.50;;
17361;SDS011;8798;51.938;4.348;2023-06-22T07:36:25;13.03;;;7.77;;
17361;SDS011;8798;51.938;4.348;2023-06-22T07:38:53;11.40;;;7.00;;
17361;SDS011;8798;51.938;4.348;2023-06-22T07:41:21;11.10;;;7.00;;
17361;SDS011;8798;51.938;4.348;2023-06-22T07:43:49;10.30;;;6.70;;
17361;SDS011;8798;51.938;4.348;2023-06-22T07:46:19;10.57;;;6.68;;
17361;SDS011;8798;51.938;4.348;2023-06-22T07:48:47;8.98;;;5.28;;
17361;SDS011;8798;51.938;4.348;2023-06-22T07:51:15;10.10;;;5.25;;
17361;SDS011;8798;51.938;4.348;2023-06-22T07:53:43;7.10;;;4.80;;
17361;SDS011;8798;51.938;4.348;2023-06-22T07:56:12;9.02;;;4.47;;
17361;SDS011;8798;51.938;4.348;2023-06-22T07:58:45;8.20;;;4.63;;
17361;SDS011;8798;51.938;4.348;2023-06-22T08:01:13;5.50;;;3.63;;
17361;SDS011;8798;51.938;4.348;2023-06-22T08:03:43;6.38;;;3.63;;
17361;SDS011;8798;51.938;4.348;2023-06-22T08:06:11;5.68;;;3.47;;
17361;SDS011;8798;51.938;4.348;2023-06-22T08:08:38;5.85;;;3.58;;
17361;SDS011;8798;51.938;4.348;2023-06-22T08:11:06;5.22;;;2.88;;
17361;SDS011;8798;51.938;4.348;2023-06-22T08:13:34;6.65;;;3.95;;
17361;SDS011;8798;51.938;4.348;2023-06-22T08:16:03;5.90;;;3.47;;
17361;SDS011;8798;51.938;4.348;2023-06-22T08:18:31;6.38;;;3.45;;
17361;SDS011;8798;51.938;4.348;2023-06-22T08:21:00;5.05;;;2.95;;
17361;SDS011;8798;51.938;4.348;2023-06-22T08:23:31;5.47;;;2.88;;
17361;SDS011;8798;51.938;4.348;2023-06-22T08:25:59;5.10;;;2.47;;
17361;SDS011;8798;51.938;4.348;2023-06-22T08:28:27;3.50;;;2.13;;
17361;SDS011;8798;51.938;4.348;2023-06-22T08:30:55;4.57;;;2.30;;
17361;SDS011;8798;51.938;4.348;2023-06-22T08:33:22;4.38;;;2.20;;
17361;SDS011;8798;51.938;4.348;2023-06-22T08:35:54;5.18;;;2.72;;
17361;SDS011;8798;51.938;4.348;2023-06-22T08:38:24;3.65;;;2.42;;
17361;SDS011;8798;51.938;4.348;2023-06-22T08:40:52;4.95;;;2.47;;
17361;SDS011;8798;51.938;4.348;2023-06-22T08:43:20;4.43;;;2.90;;
17361;SDS011;8798;51.938;4.348;2023-06-22T08:45:48;4.72;;;2.50;;
17361;SDS011;8798;51.938;4.348;2023-06-22T08:48:16;4.45;;;2.47;;
17361;SDS011;8798;51.938;4.348;2023-06-22T08:50:44;4.95;;;2.33;;
17361;SDS011;8798;51.938;4.348;2023-06-22T08:53:11;2.40;;;1.80;;
17361;SDS011;8798;51.938;4.348;2023-06-22T08:55:41;2.80;;;1.80;;
17361;SDS011;8798;51.938;4.348;2023-06-22T08:58:09;2.30;;;1.63;;
17361;SDS011;8798;51.938;4.348;2023-06-22T09:00:36;5.05;;;2.00;;
17361;SDS011;8798;51.938;4.348;2023-06-22T09:03:04;2.80;;;1.67;;
17361;SDS011;8798;51.938;4.348;2023-06-22T09:05:33;2.20;;;1.40;;
17361;SDS011;8798;51.938;4.348;2023-06-22T09:08:01;2.03;;;1.40;;
17361;SDS011;8798;51.938;4.348;2023-06-22T09:10:29;3.42;;;1.63;;
17361;SDS011;8798;51.938;4.348;2023-06-22T09:12:58;2.47;;;1.50;;
17361;SDS011;8798;51.938;4.348;2023-06-22T09:15:26;2.22;;;1.45;;
17361;SDS011;8798;51.938;4.348;2023-06-22T09:17:54;2.53;;;1.70;;
17361;SDS011;8798;51.938;4.348;2023-06-22T09:20:23;3.67;;;1.70;;
17361;SDS011;8798;51.938;4.348;2023-06-22T09:22:51;2.70;;;1.58;;
17361;SDS011;8798;51.938;4.348;2023-06-22T09:25:19;4.07;;;1.90;;
17361;SDS011;8798;51.938;4.348;2023-06-22T09:27:47;3.20;;;1.88;;
17361;SDS011;8798;51.938;4.348;2023-06-22T09:30:17;3.35;;;1.88;;
17361;SDS011;8798;51.938;4.348;2023-06-22T09:32:44;5.20;;;1.80;;
17361;SDS011;8798;51.938;4.348;2023-06-22T09:35:12;3.53;;;2.20;;
17361;SDS011;8798;51.938;4.348;2023-06-22T09:37:40;4.05;;;2.42;;
17361;SDS011;8798;51.938;4.348;2023-06-22T09:40:09;3.65;;;1.77;;
17361;SDS011;8798;51.938;4.348;2023-06-22T09:42:39;5.53;;;2.08;;
17361;SDS011;8798;51.938;4.348;2023-06-22T09:45:07;7.22;;;3.05;;
17361;SDS011;8798;51.938;4.348;2023-06-22T09:47:37;4.43;;;2.30;;
17361;SDS011;8798;51.938;4.348;2023-06-22T09:50:05;4.03;;;2.60;;
17361;SDS011;8798;51.938;4.348;2023-06-22T09:52:34;4.53;;;2.95;;
17361;SDS011;8798;51.938;4.348;2023-06-22T09:55:05;5.60;;;3.08;;
17361;SDS011;8798;51.938;4.348;2023-06-22T09:57:33;5.22;;;3.13;;
17361;SDS011;8798;51.938;4.348;2023-06-22T10:00:01;4.68;;;3.42;;
17361;SDS011;8798;51.938;4.348;2023-06-22T10:02:34;7.30;;;4.20;;
17361;SDS011;8798;51.938;4.348;2023-06-22T10:05:04;6.43;;;3.97;;
17361;SDS011;8798;51.938;4.348;2023-06-22T10:07:32;6.43;;;4.38;;
17361;SDS011;8798;51.938;4.348;2023-06-22T10:10:00;6.93;;;4.05;;
17361;SDS011;8798;51.938;4.348;2023-06-22T10:12:29;5.65;;;3.55;;
17361;SDS011;8798;51.938;4.348;2023-06-22T10:14:57;5.70;;;3.40;;
17361;SDS011;8798;51.938;4.348;2023-06-22T10:17:25;5.65;;;3.17;;
17361;SDS011;8798;51.938;4.348;2023-06-22T10:19:53;5.22;;;3.20;;
17361;SDS011;8798;51.938;4.348;2023-06-22T10:22:22;5.85;;;3.92;;
17361;SDS011;8798;51.938;4.348;2023-06-22T10:24:51;5.25;;;3.78;;
17361;SDS011;8798;51.938;4.348;2023-06-22T10:27:19;9.05;;;4.30;;
17361;SDS011;8798;51.938;4.348;2023-06-22T10:29:47;6.28;;;4.10;;
17361;SDS011;8798;51.938;4.348;2023-06-22T10:32:15;6.20;;;3.75;;
17361;SDS011;8798;51.938;4.348;2023-06-22T10:34:42;5.38;;;3.53;;
17361;SDS011;8798;51.938;4.348;2023-06-22T10:37:10;5.22;;;3.17;;
17361;SDS011;8798;51.938;4.348;2023-06-22T10:39:39;4.68;;;2.90;;
17361;SDS011;8798;51.938;4.348;2023-06-22T10:42:07;5.43;;;3.33;;
17361;SDS011;8798;51.938;4.348;2023-06-22T10:44:35;6.63;;;3.42;;
17361;SDS011;8798;51.938;4.348;2023-06-22T10:47:03;6.30;;;3.90;;
17361;SDS011;8798;51.938;4.348;2023-06-22T10:49:31;7.10;;;3.83;;
17361;SDS011;8798;51.938;4.348;2023-06-22T10:51:59;5.63;;;4.00;;
17361;SDS011;8798;51.938;4.348;2023-06-22T10:54:27;6.38;;;3.95;;
17361;SDS011;8798;51.938;4.348;2023-06-22T10:56:57;5.18;;;3.65;;
17361;SDS011;8798;51.938;4.348;2023-06-22T10:59:24;9.10;;;4.20;;
17361;SDS011;8798;51.938;4.348;2023-06-22T11:01:53;3.97;;;3.05;;
17361;SDS011;8798;51.938;4.348;2023-06-22T11:04:21;4.18;;;3.30;;
17361;SDS011;8798;51.938;4.348;2023-06-22T11:06:49;4.80;;;3.30;;
17361;SDS011;8798;51.938;4.348;2023-06-22T11:09:17;7.32;;;4.55;;
17361;SDS011;8798;51.938;4.348;2023-06-22T11:11:53;5.60;;;3.88;;
17361;SDS011;8798;51.938;4.348;2023-06-22T11:14:22;4.93;;;3.50;;
17361;SDS011;8798;51.938;4.348;2023-06-22T11:16:50;6.38;;;3.72;;
17361;SDS011;8798;51.938;4.348;2023-06-22T11:19:18;5.97;;;3.72;;
17361;SDS011;8798;51.938;4.348;2023-06-22T11:21:46;5.45;;;4.38;;
17361;SDS011;8798;51.938;4.348;2023-06-22T11:24:14;6.88;;;4.25;;
17361;SDS011;8798;51.938;4.348;2023-06-22T11:26:43;5.22;;;4.05;;
17361;SDS011;8798;51.938;4.348;2023-06-22T11:29:11;6.72;;;4.78;;
17361;SDS011;8798;51.938;4.348;2023-06-22T11:31:50;4.75;;;3.78;;
17361;SDS011;8798;51.938;4.348;2023-06-22T11:34:18;7.32;;;4.40;;
17361;SDS011;8798;51.938;4.348;2023-06-22T11:36:46;5.25;;;3.47;;
17361;SDS011;8798;51.938;4.348;2023-06-22T11:39:14;4.93;;;3.55;;
17361;SDS011;8798;51.938;4.348;2023-06-22T11:41:42;5.15;;;3.10;;
17361;SDS011;8798;51.938;4.348;2023-06-22T11:44:10;3.80;;;3.05;;
17361;SDS011;8798;51.938;4.348;2023-06-22T11:46:38;4.68;;;3.20;;
17361;SDS011;8798;51.938;4.348;2023-06-22T11:49:07;6.63;;;4.00;;
17361;SDS011;8798;51.938;4.348;2023-06-22T11:51:35;4.75;;;3.83;;
17361;SDS011;8798;51.938;4.348;2023-06-22T11:54:03;6.35;;;4.22;;
17361;SDS011;8798;51.938;4.348;2023-06-22T11:56:32;5.47;;;4.10;;
17361;SDS011;8798;51.938;4.348;2023-06-22T11:59:00;9.13;;;4.97;;
17361;SDS011;8798;51.938;4.348;2023-06-22T12:01:28;6.47;;;4.50;;
17361;SDS011;8798;51.938;4.348;2023-06-22T12:03:56;4.75;;;3.63;;
17361;SDS011;8798;51.938;4.348;2023-06-22T12:06:26;5.75;;;4.07;;
17361;SDS011;8798;51.938;4.348;2023-06-22T12:08:54;6.57;;;4.20;;
17361;SDS011;8798;51.938;4.348;2023-06-22T12:11:23;6.35;;;3.85;;
17361;SDS011;8798;51.938;4.348;2023-06-22T12:13:50;7.30;;;4.65;;
17361;SDS011;8798;51.938;4.348;2023-06-22T12:16:19;6.10;;;3.78;;
17361;SDS011;8798;51.938;4.348;2023-06-22T12:18:48;5.63;;;4.20;;
17361;SDS011;8798;51.938;4.348;2023-06-22T12:21:16;7.22;;;3.92;;
17361;SDS011;8798;51.938;4.348;2023-06-22T12:23:45;7.68;;;4.30;;
17361;SDS011;8798;51.938;4.348;2023-06-22T12:26:13;7.10;;;4.50;;
17361;SDS011;8798;51.938;4.348;2023-06-22T12:28:41;6.57;;;4.47;;
17361;SDS011;8798;51.938;4.348;2023-06-22T12:31:09;11.27;;;4.82;;
17361;SDS011;8798;51.938;4.348;2023-06-22T12:33:36;9.25;;;5.40;;
17361;SDS011;8798;51.938;4.348;2023-06-22T12:36:05;8.77;;;5.95;;
17361;SDS011;8798;51.938;4.348;2023-06-22T12:38:33;9.85;;;6.72;;
17361;SDS011;8798;51.938;4.348;2023-06-22T12:41:03;11.68;;;7.22;;
17361;SDS011;8798;51.938;4.348;2023-06-22T12:43:31;10.98;;;7.18;;
17361;SDS011;8798;51.938;4.348;2023-06-22T12:45:58;10.63;;;7.38;;
17361;SDS011;8798;51.938;4.348;2023-06-22T12:48:26;11.57;;;7.80;;
17361;SDS011;8798;51.938;4.348;2023-06-22T12:50:55;13.60;;;8.18;;
17361;SDS011;8798;51.938;4.348;2023-06-22T12:53:22;12.80;;;7.90;;
17361;SDS011;8798;51.938;4.348;2023-06-22T12:55:53;11.93;;;7.95;;
17361;SDS011;8798;51.938;4.348;2023-06-22T12:58:22;12.98;;;8.07;;
17361;SDS011;8798;51.938;4.348;2023-06-22T13:00:50;12.88;;;8.40;;
17361;SDS011;8798;51.938;4.348;2023-06-22T13:03:18;10.85;;;7.20;;
17361;SDS011;8798;51.938;4.348;2023-06-22T13:05:47;10.43;;;7.57;;
17361;SDS011;8798;51.938;4.348;2023-06-22T13:08:15;12.70;;;8.30;;
17361;SDS011;8798;51.938;4.348;2023-06-22T13:10:42;11.88;;;8.63;;
17361;SDS011;8798;51.938;4.348;2023-06-22T13:13:11;11.25;;;8.18;;
17361;SDS011;8798;51.938;4.348;2023-06-22T13:15:40;13.27;;;7.90;;
17361;SDS011;8798;51.938;4.348;2023-06-22T13:18:08;11.38;;;7.78;;
17361;SDS011;8798;51.938;4.348;2023-06-22T13:20:36;10.50;;;7.60;;
17361;SDS011;8798;51.938;4.348;2023-06-22T13:23:04;11.00;;;7.20;;
17361;SDS011;8798;51.938;4.348;2023-06-22T13:25:32;12.35;;;7.22;;
17361;SDS011;8798;51.938;4.348;2023-06-22T13:27:59;10.10;;;6.65;;
17361;SDS011;8798;51.938;4.348;2023-06-22T13:30:30;10.43;;;7.05;;
17361;SDS011;8798;51.938;4.348;2023-06-22T13:33:02;11.07;;;7.22;;
17361;SDS011;8798;51.938;4.348;2023-06-22T13:35:30;13.95;;;8.23;;
17361;SDS011;8798;51.938;4.348;2023-06-22T13:37:59;16.80;;;8.40;;
17361;SDS011;8798;51.938;4.348;2023-06-22T13:40:26;11.15;;;7.90;;
17361;SDS011;8798;51.938;4.348;2023-06-22T13:42:55;13.25;;;9.27;;
17361;SDS011;8798;51.938;4.348;2023-06-22T13:45:23;15.63;;;9.68;;
17361;SDS011;8798;51.938;4.348;2023-06-22T13:47:51;14.88;;;10.10;;
17361;SDS011;8798;51.938;4.348;2023-06-22T13:50:20;14.48;;;10.43;;
17361;SDS011;8798;51.938;4.348;2023-06-22T13:52:48;14.93;;;9.65;;
17361;SDS011;8798;51.938;4.348;2023-06-22T13:55:16;12.13;;;8.80;;
17361;SDS011;8798;51.938;4.348;2023-06-22T13:57:46;14.05;;;9.32;;
17361;SDS011;8798;51.938;4.348;2023-06-22T14:00:14;15.20;;;9.70;;
17361;SDS011;8798;51.938;4.348;2023-06-22T14:02:42;16.00;;;9.93;;
17361;SDS011;8798;51.938;4.348;2023-06-22T14:05:10;16.30;;;9.68;;
17361;SDS011;8798;51.938;4.348;2023-06-22T14:07:41;14.80;;;10.23;;
17361;SDS011;8798;51.938;4.348;2023-06-22T14:10:09;13.27;;;9.25;;
17361;SDS011;8798;51.938;4.348;2023-06-22T14:12:37;12.25;;;9.40;;
17361;SDS011;8798;51.938;4.348;2023-06-22T14:15:05;13.77;;;9.57;;
17361;SDS011;8798;51.938;4.348;2023-06-22T14:17:34;15.52;;;9.60;;
17361;SDS011;8798;51.938;4.348;2023-06-22T14:20:02;14.07;;;9.43;;
17361;SDS011;8798;51.938;4.348;2023-06-22T14:22:31;15.05;;;9.15;;
17361;SDS011;8798;51.938;4.348;2023-06-22T14:25:04;13.30;;;9.77;;
17361;SDS011;8798;51.938;4.348;2023-06-22T14:27:32;15.50;;;10.07;;
17361;SDS011;8798;51.938;4.348;2023-06-22T14:30:00;12.25;;;9.15;;
17361;SDS011;8798;51.938;4.348;2023-06-22T14:32:32;19.35;;;10.57;;
17361;SDS011;8798;51.938;4.348;2023-06-22T14:35:00;14.90;;;9.70;;
17361;SDS011;8798;51.938;4.348;2023-06-22T14:37:28;15.55;;;11.13;;
17361;SDS011;8798;51.938;4.348;2023-06-22T14:39:56;15.25;;;11.10;;
17361;SDS011;8798;51.938;4.348;2023-06-22T14:42:25;16.92;;;11.82;;
17361;SDS011;8798;51.938;4.348;2023-06-22T14:44:55;15.27;;;10.73;;
17361;SDS011;8798;51.938;4.348;2023-06-22T14:47:23;15.35;;;10.68;;
17361;SDS011;8798;51.938;4.348;2023-06-22T14:49:51;17.42;;;10.82;;
17361;SDS011;8798;51.938;4.348;2023-06-22T14:52:18;13.15;;;10.38;;
17361;SDS011;8798;51.938;4.348;2023-06-22T14:54:46;16.25;;;11.40;;